createdAt,value
2019-04-20T00:02:18.574Z,53.21
2019-04-20T00:05:21.185Z,51.06
2019-04-20T00:08:31.170Z,49.90
2019-04-20T00:11:44.832Z,50.48
2019-04-20T00:14:41.293Z,51.70
2019-04-20T00:17:58.363Z,52.64
2019-04-20T00:21:18.871Z,53.04
2019-04-20T00:24:33.493Z,58.85
2019-04-20T00:28:15.322Z,61.20
2019-04-20T00:31:19.031Z,61.60
2019-04-20T00:34:17.026Z,60.43
2019-04-20T00:37:17.000Z,60.69
2019-04-20T00:40:23.692Z,60.17
2019-04-20T00:43:32.951Z,60.62
2019-04-20T00:46:51.251Z,62.36
2019-04-20T00:49:57.990Z,61.19
2019-04-20T00:53:04.689Z,61.38
2019-04-20T00:55:59.143Z,61.51
2019-04-20T00:59:17.208Z,61.12
2019-04-20T01:02:26.210Z,61.07
2019-04-20T01:06:08.704Z,61.66
2019-04-20T01:09:12.343Z,60.14
2019-04-20T01:12:23.278Z,61.10
2019-04-20T01:15:35.249Z,60.60
2019-04-20T01:18:32.536Z,58.86
2019-04-20T01:21:38.335Z,60.19
2019-04-20T01:24:46.661Z,59.18
2019-04-20T01:28:07.689Z,59.84
2019-04-20T01:31:10.007Z,59.59
2019-04-20T01:34:19.583Z,59.94
2019-04-20T01:37:26.103Z,60.01
2019-04-20T01:40:21.017Z,61.21
2019-04-20T01:43:27.031Z,61.33
2019-04-20T01:46:33.827Z,60.02
2019-04-20T01:49:40.776Z,59.35
2019-04-20T01:52:58.102Z,58.98
2019-04-20T01:56:15.455Z,57.85
2019-04-20T01:59:28.430Z,56.80
2019-04-20T02:02:29.421Z,58.13
2019-04-20T02:05:37.096Z,58.10
2019-04-20T02:08:42.192Z,56.61
2019-04-20T02:11:52.051Z,56.22
2019-04-20T02:15:01.054Z,58.00
2019-04-20T02:18:17.657Z,61.20
2019-04-20T02:21:30.018Z,63.07
2019-04-20T02:24:19.642Z,63.56
2019-04-20T02:27:34.350Z,64.26
2019-04-20T02:31:14.843Z,64.98
2019-04-20T02:34:26.128Z,65.58
2019-04-20T02:37:51.405Z,65.73
2019-04-20T02:40:52.626Z,65.16
2019-04-20T02:44:06.545Z,65.57
2019-04-20T02:47:08.398Z,65.21
2019-04-20T02:50:15.687Z,66.18
2019-04-20T03:02:23.748Z,68.85
2019-04-20T03:05:28.097Z,69.10
2019-04-20T03:08:40.543Z,69.98
2019-04-20T03:11:59.739Z,68.35
2019-04-20T03:14:50.254Z,68.38
2019-04-20T03:18:03.909Z,68.33
2019-04-20T03:21:12.954Z,69.37
2019-04-20T03:24:29.535Z,68.62
2019-04-20T03:27:46.146Z,69.54
2019-04-20T03:31:36.787Z,68.85
2019-04-20T03:34:41.280Z,70.23
2019-04-20T03:37:21.931Z,70.47
2019-04-20T03:40:19.397Z,70.24
2019-04-20T03:43:09.887Z,70.34
2019-04-20T03:46:19.174Z,71.01
2019-04-20T03:49:52.159Z,71.09
2019-04-20T03:52:57.845Z,71.79
2019-04-20T03:56:02.306Z,72.75
2019-04-20T03:59:50.886Z,71.92
2019-04-20T04:03:12.548Z,72.30
2019-04-20T04:06:07.684Z,73.40
2019-04-20T04:09:14.752Z,73.19
2019-04-20T04:12:44.782Z,73.58
2019-04-20T04:15:55.584Z,73.24
2019-04-20T04:19:06.141Z,72.94
2019-04-20T04:22:17.179Z,72.77
2019-04-20T04:25:23.057Z,72.90
2019-04-20T04:28:35.076Z,71.69
2019-04-20T04:31:50.572Z,70.89
2019-04-20T04:34:48.932Z,68.87
2019-04-20T04:37:56.996Z,65.74
2019-04-20T04:44:08.684Z,62.04
2019-04-20T04:47:04.783Z,58.01
2019-04-20T04:50:15.841Z,56.74
2019-04-20T04:53:27.206Z,53.21
2019-04-20T04:56:24.963Z,52.62
2019-04-20T04:59:29.811Z,50.54
2019-04-20T05:02:40.595Z,50.62
2019-04-20T05:06:08.876Z,49.04
2019-04-20T05:09:05.207Z,50.19
2019-04-20T05:12:14.994Z,50.10
2019-04-20T05:15:32.455Z,49.48
2019-04-20T05:18:51.170Z,50.07
2019-04-20T05:22:15.984Z,49.23
2019-04-20T05:25:55.603Z,49.79
2019-04-20T05:28:51.338Z,47.72
2019-04-20T05:31:55.938Z,50.15
2019-04-20T05:35:15.108Z,47.45
2019-04-20T05:38:34.022Z,46.04
2019-04-20T05:41:27.125Z,47.27
2019-04-20T05:44:41.656Z,48.14
2019-04-20T05:47:44.072Z,46.13
2019-04-20T05:50:53.175Z,46.59
2019-04-20T05:54:04.262Z,43.85
2019-04-20T05:57:14.446Z,45.13
2019-04-20T06:00:13.629Z,44.57
2019-04-20T06:03:20.312Z,41.54
2019-04-20T06:06:32.822Z,43.50
2019-04-20T06:09:39.764Z,44.95
2019-04-20T06:12:42.748Z,44.82
2019-04-20T06:15:53.835Z,44.37
2019-04-20T06:19:15.580Z,41.84
2019-04-20T06:25:55.925Z,43.05
2019-04-20T06:28:45.092Z,40.94
2019-04-20T06:31:59.104Z,40.73
2019-04-20T06:35:09.239Z,41.87
2019-04-20T06:38:29.651Z,39.39
2019-04-20T06:41:33.060Z,41.13
2019-04-20T06:44:32.060Z,42.95
2019-04-20T06:47:31.014Z,42.93
2019-04-20T06:50:38.753Z,47.52
2019-04-20T06:53:49.965Z,47.35
2019-04-20T06:57:07.315Z,46.76
2019-04-20T07:03:30.555Z,48.89
2019-04-20T07:06:43.642Z,49.23
2019-04-20T07:09:49.604Z,52.32
2019-04-20T07:12:40.904Z,51.83
2019-04-20T07:15:50.780Z,48.94
2019-04-20T07:19:22.868Z,50.23
2019-04-20T07:22:37.558Z,50.74
2019-04-20T07:25:47.355Z,53.37
2019-04-20T07:29:01.963Z,49.41
2019-04-20T07:31:58.829Z,50.97
2019-04-20T07:35:09.832Z,54.13
2019-04-20T07:41:32.995Z,50.18
2019-04-20T07:44:41.412Z,49.41
2019-04-20T07:47:49.247Z,47.78
2019-04-20T07:50:40.905Z,48.64
2019-04-20T07:53:52.157Z,53.31
2019-04-20T07:57:06.813Z,53.80
2019-04-20T08:00:08.057Z,52.25
2019-04-20T08:03:29.563Z,51.42
2019-04-20T08:06:38.094Z,48.86
2019-04-20T08:09:49.206Z,49.45
2019-04-20T08:13:09.472Z,52.38
2019-04-20T08:16:20.337Z,51.21
2019-04-20T08:19:17.359Z,52.45
2019-04-20T08:22:26.817Z,52.81
2019-04-20T08:25:23.530Z,51.54
2019-04-20T08:28:51.902Z,49.19
2019-04-20T08:32:30.616Z,51.49
2019-04-20T08:35:51.012Z,50.00
2019-04-20T08:41:58.894Z,51.03
2019-04-20T08:48:19.182Z,50.33
2019-04-20T08:51:19.392Z,47.46
2019-04-20T08:54:22.105Z,45.20
2019-04-20T08:57:15.743Z,49.28
2019-04-20T09:00:29.656Z,48.86
2019-04-20T09:03:37.502Z,49.68
2019-04-20T09:06:50.738Z,52.16
2019-04-20T09:10:10.105Z,44.43
2019-04-20T09:13:02.603Z,44.57
2019-04-20T09:15:57.904Z,45.53
2019-04-20T09:19:09.415Z,46.53
2019-04-20T09:22:40.210Z,46.07
2019-04-20T09:26:12.855Z,42.80
2019-04-20T09:28:59.154Z,46.80
2019-04-20T09:32:16.789Z,43.50
2019-04-20T09:35:25.312Z,45.93
2019-04-20T09:38:30.449Z,44.98
2019-04-20T09:41:47.064Z,43.90
2019-04-20T09:44:40.906Z,43.40
2019-04-20T09:47:47.813Z,42.46
2019-04-20T09:51:12.664Z,43.24
2019-04-20T09:54:10.814Z,43.75
2019-04-20T09:57:28.329Z,44.09
2019-04-20T10:00:27.155Z,42.74
2019-04-20T10:03:18.581Z,41.99
2019-04-20T10:06:28.165Z,43.57
2019-04-20T10:09:37.273Z,42.07
2019-04-20T10:12:38.000Z,38.93
2019-04-20T10:15:43.695Z,39.88
2019-04-20T10:18:53.219Z,38.65
2019-04-20T10:21:58.843Z,43.52
2019-04-20T10:25:06.621Z,42.20
2019-04-20T10:28:11.952Z,41.18
2019-04-20T10:31:17.327Z,42.55
2019-04-20T10:34:24.139Z,42.01
2019-04-20T10:37:33.684Z,39.47
2019-04-20T10:40:50.747Z,38.42
2019-04-20T10:43:48.977Z,39.64
2019-04-20T10:46:54.395Z,39.80
2019-04-20T10:50:00.747Z,36.32
2019-04-20T10:53:06.235Z,37.52
2019-04-20T10:56:11.723Z,38.58
2019-04-20T10:59:17.050Z,38.38
2019-04-20T11:02:23.549Z,37.92
2019-04-20T11:05:32.801Z,36.61
2019-04-20T11:08:38.436Z,36.26
2019-04-20T11:11:44.190Z,37.80
2019-04-20T11:14:50.760Z,37.21
2019-04-20T11:17:59.691Z,35.72
2019-04-20T11:21:05.265Z,34.42
2019-04-20T11:24:10.631Z,36.29
2019-04-20T11:27:16.321Z,34.81
2019-04-20T11:30:23.249Z,35.26
2019-04-20T11:33:29.932Z,35.43
2019-04-20T11:36:35.330Z,36.64
2019-04-20T11:39:41.144Z,37.01
2019-04-20T11:42:47.938Z,33.89
2019-04-20T11:45:54.456Z,34.37
2019-04-20T11:49:01.534Z,33.49
2019-04-20T11:52:10.141Z,32.54
2019-04-20T11:55:18.365Z,34.79
2019-04-20T11:58:25.985Z,34.37
2019-04-20T12:01:57.152Z,34.94
2019-04-20T12:05:12.758Z,34.04
2019-04-20T12:08:09.215Z,34.49
2019-04-20T12:11:26.620Z,34.96
2019-04-20T12:14:22.922Z,33.94
2019-04-20T12:17:29.371Z,33.62
2019-04-20T12:20:34.911Z,31.78
2019-04-20T12:23:40.417Z,32.70
2019-04-20T12:26:47.019Z,31.77
2019-04-20T12:29:54.018Z,31.46
2019-04-20T12:33:01.935Z,34.14
2019-04-20T12:36:10.134Z,33.69
2019-04-20T12:39:15.625Z,32.98
2019-04-20T12:42:21.208Z,32.39
2019-04-20T12:45:29.267Z,33.79
2019-04-20T12:48:35.528Z,31.82
2019-04-20T12:51:48.665Z,33.67
2019-04-20T12:54:50.362Z,37.74
2019-04-20T12:57:56.964Z,32.29
2019-04-20T13:01:02.614Z,30.58
2019-04-20T13:04:09.663Z,32.14
2019-04-20T13:07:15.642Z,31.58
2019-04-20T13:10:21.492Z,30.82
2019-04-20T13:13:50.321Z,30.91
2019-04-20T13:16:56.869Z,31.95
2019-04-20T13:20:03.744Z,31.92
2019-04-20T13:23:09.269Z,31.30
2019-04-20T13:26:17.320Z,31.48
2019-04-20T13:29:22.818Z,30.59
2019-04-20T13:32:28.142Z,32.57
2019-04-20T13:35:34.318Z,31.89
2019-04-20T13:38:40.403Z,33.63
2019-04-20T13:41:57.642Z,34.78
2019-04-20T13:44:54.983Z,33.10
2019-04-20T13:48:01.131Z,31.44
2019-04-20T13:51:07.786Z,32.40
2019-04-20T13:54:17.662Z,31.59
2019-04-20T13:57:26.128Z,33.41
2019-04-20T14:00:59.356Z,32.53
2019-04-20T14:04:12.669Z,31.34
2019-04-20T14:07:20.341Z,30.49
2019-04-20T14:10:27.071Z,29.98
2019-04-20T14:13:38.981Z,31.54
2019-04-20T14:16:41.255Z,31.00
2019-04-20T14:19:47.443Z,28.68
2019-04-20T14:22:54.658Z,31.43
2019-04-20T14:26:00.851Z,29.99
2019-04-20T14:29:07.276Z,28.59
2019-04-20T14:32:12.759Z,28.73
2019-04-20T14:35:21.030Z,28.02
2019-04-20T14:38:26.467Z,28.40
2019-04-20T14:41:31.815Z,27.99
2019-04-20T14:44:37.499Z,26.76
2019-04-20T14:47:43.813Z,29.75
2019-04-20T14:50:49.725Z,28.24
2019-04-20T14:53:55.791Z,30.17
2019-04-20T14:57:01.454Z,30.50
2019-04-20T15:00:23.542Z,28.02
2019-04-20T15:03:37.334Z,26.27
2019-04-20T15:06:42.492Z,29.10
2019-04-20T15:09:48.811Z,26.89
2019-04-20T15:12:59.111Z,31.08
2019-04-20T15:16:02.404Z,29.85
2019-04-20T15:19:25.433Z,33.01
2019-04-20T15:22:51.551Z,29.17
2019-04-20T15:25:58.205Z,29.14
2019-04-20T15:29:04.430Z,29.70
2019-04-20T15:32:10.207Z,29.39
2019-04-20T15:35:19.115Z,31.49
2019-04-20T15:38:23.519Z,30.90
2019-04-20T15:41:29.438Z,31.02
2019-04-20T15:44:35.541Z,29.04
2019-04-20T15:47:41.036Z,29.35
2019-04-20T15:50:47.717Z,27.69
2019-04-20T15:53:53.540Z,27.79
2019-04-20T15:57:07.269Z,27.88
2019-04-20T16:00:08.592Z,28.02
2019-04-20T16:03:21.528Z,27.98
2019-04-20T16:06:27.364Z,28.31
2019-04-20T16:09:33.675Z,26.96
2019-04-20T16:12:40.635Z,26.49
2019-04-20T16:15:47.538Z,26.25
2019-04-20T16:18:55.052Z,27.18
2019-04-20T16:22:01.696Z,26.18
2019-04-20T16:25:41.435Z,25.39
2019-04-20T16:28:46.230Z,25.49
2019-04-20T16:31:52.179Z,25.49
2019-04-20T16:34:58.265Z,26.99
2019-04-20T16:38:06.668Z,26.96
2019-04-20T16:41:14.664Z,26.49
2019-04-20T16:44:21.064Z,26.51
2019-04-20T16:47:26.493Z,28.11
2019-04-20T16:50:33.053Z,26.68
2019-04-20T16:53:39.607Z,27.44
2019-04-20T16:56:44.917Z,25.67
2019-04-20T16:59:52.995Z,24.54
2019-04-20T17:02:58.457Z,24.88
2019-04-20T17:06:04.743Z,23.96
2019-04-20T17:09:13.780Z,23.30
2019-04-20T17:12:19.629Z,24.96
2019-04-20T17:15:25.580Z,27.18
2019-04-20T17:18:31.823Z,25.57
2019-04-20T17:21:37.343Z,23.92
2019-04-20T17:24:43.113Z,24.66
2019-04-20T17:27:59.502Z,24.03
2019-04-20T17:31:13.554Z,24.09
2019-04-20T17:34:36.578Z,24.35
2019-04-20T17:37:29.851Z,26.29
2019-04-20T17:40:55.999Z,25.81
2019-04-20T17:44:02.764Z,26.76
2019-04-20T17:47:00.504Z,28.05
2019-04-20T17:50:12.301Z,27.31
2019-04-20T17:53:22.934Z,26.38
2019-04-20T17:56:12.538Z,27.02
2019-04-20T17:59:17.847Z,27.53
2019-04-20T18:03:04.297Z,28.43
2019-04-20T18:06:17.343Z,27.66
2019-04-20T18:09:25.540Z,27.60
2019-04-20T18:12:23.223Z,28.95
2019-04-20T18:15:35.909Z,29.04
2019-04-20T18:18:52.957Z,29.29
2019-04-20T18:21:58.834Z,29.52
2019-04-20T18:25:27.366Z,29.79
2019-04-20T18:28:27.759Z,30.41
2019-04-20T18:31:37.641Z,31.08
2019-04-20T18:35:05.335Z,31.24
2019-04-20T18:38:14.908Z,32.33
2019-04-20T18:41:28.290Z,33.26
2019-04-20T18:44:30.442Z,33.84
2019-04-20T18:47:50.903Z,34.44
2019-04-20T18:50:42.234Z,35.44
2019-04-20T18:53:50.490Z,35.29
2019-04-20T18:56:56.784Z,35.27
2019-04-20T19:00:04.650Z,35.68
2019-04-20T19:03:20.281Z,37.10
2019-04-20T19:06:21.100Z,37.57
2019-04-20T19:09:30.311Z,37.68
2019-04-20T19:12:44.241Z,36.82
2019-04-20T19:16:06.874Z,36.91
2019-04-20T19:19:30.206Z,37.63
2019-04-20T19:22:30.264Z,38.08
2019-04-20T19:25:40.280Z,38.82
2019-04-20T19:28:49.773Z,39.38
2019-04-20T19:32:14.324Z,37.63
2019-04-20T19:35:06.877Z,38.53
2019-04-20T19:38:15.203Z,39.28
2019-04-20T19:41:25.415Z,39.60
2019-04-20T19:44:32.555Z,39.67
2019-04-20T19:47:47.983Z,39.38
2019-04-20T19:50:59.363Z,40.14
2019-04-20T19:54:12.132Z,40.75
2019-04-20T19:57:05.032Z,41.37
2019-04-20T19:59:58.605Z,41.08
2019-04-20T20:03:05.759Z,41.01
2019-04-20T20:06:23.720Z,41.05
2019-04-20T20:09:21.861Z,41.11
2019-04-20T20:12:27.538Z,40.74
2019-04-20T20:15:36.438Z,41.35
2019-04-20T20:18:57.518Z,41.91
2019-04-20T20:21:59.005Z,42.06
2019-04-20T20:24:54.882Z,42.61
2019-04-20T20:28:17.190Z,43.56
2019-04-20T20:31:20.745Z,43.73
2019-04-20T20:34:23.884Z,44.27
2019-04-20T20:37:37.639Z,45.18
2019-04-20T20:40:34.639Z,46.43
2019-04-20T20:43:51.210Z,46.49
2019-04-20T20:46:55.062Z,47.47
2019-04-20T20:50:17.270Z,47.47
2019-04-20T20:53:10.344Z,48.20
2019-04-20T20:56:15.061Z,48.31
2019-04-20T20:59:26.773Z,48.72
2019-04-20T21:02:28.199Z,46.94
2019-04-20T21:05:27.416Z,47.03
2019-04-20T21:08:36.258Z,46.76
2019-04-20T21:11:40.184Z,45.82
2019-04-20T21:14:47.207Z,47.36
2019-04-20T21:18:18.958Z,49.18
2019-04-20T21:21:17.049Z,50.22
2019-04-20T21:24:20.294Z,49.55
2019-04-20T21:27:27.571Z,50.07
2019-04-20T21:30:41.160Z,51.27
2019-04-20T21:33:44.935Z,51.74
2019-04-20T21:36:50.649Z,53.91
2019-04-20T21:39:59.709Z,50.20
2019-04-20T21:43:06.971Z,49.94
2019-04-20T21:46:13.862Z,56.01
2019-04-20T21:49:36.230Z,53.27
2019-04-20T21:52:34.265Z,53.69
2019-04-20T21:55:36.217Z,53.73
2019-04-20T21:58:48.276Z,53.70
2019-04-20T22:01:58.778Z,50.84
2019-04-20T22:04:55.671Z,50.67
2019-04-20T22:08:06.506Z,48.40
2019-04-20T22:11:08.253Z,46.95
2019-04-20T22:14:18.665Z,46.45
2019-04-20T22:17:28.488Z,47.55
2019-04-20T22:20:36.437Z,48.10
2019-04-20T22:23:57.217Z,48.85
2019-04-20T22:26:54.909Z,49.88
2019-04-20T22:29:52.220Z,50.43
2019-04-20T22:33:03.965Z,52.35
2019-04-20T22:36:11.306Z,52.32
2019-04-20T22:39:39.718Z,53.08
2019-04-20T22:42:47.473Z,54.16
2019-04-20T22:45:50.625Z,55.53
2019-04-20T22:49:15.509Z,56.18
2019-04-20T22:52:18.551Z,54.87
2019-04-20T22:55:36.604Z,55.89
2019-04-20T22:58:28.973Z,55.57
2019-04-20T23:01:33.638Z,55.50
2019-04-20T23:04:33.061Z,55.86
2019-04-20T23:07:38.913Z,54.79
2019-04-20T23:10:48.069Z,55.72
2019-04-20T23:13:56.097Z,55.90
2019-04-20T23:17:02.175Z,57.84
2019-04-20T23:20:15.427Z,61.20
2019-04-20T23:23:16.939Z,58.49
2019-04-20T23:26:27.848Z,58.31
2019-04-20T23:29:33.976Z,60.93
2019-04-20T23:32:37.893Z,61.71
2019-04-20T23:35:48.953Z,62.74
2019-04-20T23:38:54.586Z,62.41
2019-04-20T23:42:02.476Z,65.29
2019-04-20T23:45:31.672Z,64.17
2019-04-20T23:48:38.900Z,63.86
2019-04-20T23:52:05.900Z,64.22
2019-04-20T23:54:58.136Z,64.31
2019-04-20T23:58:01.649Z,65.49
